PAOM

Nome Airport

Nome, Alaska, USA
PAOM 162330Z 1700/1724 07004KT P6SM FEW050 FEW100 SCT200 FM170800 09009KT P6SM VCSH OVC050 FM171500 10008KT 3SM -SN BKN025
Issued Valid From Valid To
Jan-16 @ 23:30 UTC
(6 hours ago)
Jan-17 @ 00:00 UTC
(5 hours ago)
Jan-18 @ 00:00 UTC
(in 19 hours)
Jan-17 @ 00:00 to Jan-17 @ 08:00
PAOM 162330Z 1700/1724 07004KT P6SM FEW050 FEW100 SCT200
Wind Visibility Clouds
70° at 4 knots Greater than 6 miles
  • Few at 5,000' AGL
  • Few at 10,000' AGL
  • Scattered at 20,000' AGL
From Jan-17 @ 08:00 to Jan-17 @ 15:00
FM170800 09009KT P6SM VCSH OVC050
Wind Visibility Clouds
90° at 9 knots Greater than 6 miles
  • Overcast at 5,000' AGL
From Jan-17 @ 15:00 to Jan-18 @ 00:00
FM171500 10008KT 3SM -SN BKN025
Wind Visibility Clouds Conditions
100° at 8 knots 3 miles
  • Broken at 2,500' AGL
  • Light Snow
PAOM 162330Z 1700/1724 07004KT P6SM FEW050 FEW100 SCT200 FM170800 09009KT P6SM VCSH OVC050 FM171500 10008KT 3SM -SN BKN025
Issued Jan-16 @ 23:30 UTC
(6 hours ago)
Valid From Jan-17 @ 00:00 UTC
(5 hours ago)
Valid To Jan-18 @ 00:00 UTC
(in 19 hours)
Jan-17 @ 00:00 - Jan-17 @ 08:00
Wind Visibility
70° at 4 knots Greater than 6 miles
Clouds
  • Few at 5,000' AGL
  • Few at 10,000' AGL
  • Scattered at 20,000' AGL
From Jan-17 @ 08:00 - Jan-17 @ 15:00
Wind Visibility
90° at 9 knots Greater than 6 miles
Clouds
  • Overcast at 5,000' AGL
From Jan-17 @ 15:00 - Jan-18 @ 00:00
Wind Visibility
100° at 8 knots 3 miles
Clouds
  • Broken at 2,500' AGL
Conditions
  • Light Snow